Manzanita, California
Current Conditions -  °F | °C
As of 4:53 PM on Saturday 25 Oct 2014 (Local Time) from KOVE Reporting Station
Few Clouds Few Clouds  
Wind Chill: 67°   Ceiling: Unl
Heat Index: 67°   Visibility: 10mi
Dew Point: 56°   Wind: 15mph
Humidity: 68%   Direction: 140°SE
Pressure: 30.02"   Gusts: NA
Location:  39.3475°N, 121.759°W
Report Text: KOVE 252353Z AUTO 14013KT 10SM FEW045 19/13 A3002 RMK AO2 PK WND 15027/2303 RAE2256B15E31 SLP165 P0000 60001 T01940133 10206 20156 55002
Loading
Personal Weather Stations






























Interactive Weather Map New forecast layout! Learn more

10-Day Weather Forecast

Advertisements
Track Severe Weather on mobile